Terminal Aerodrome Forecast
Issued by NWS Albuquerque, NM

Home | Current Version | Previous Version | Text Only | Print | Product List | Glossary On
Versions: 1 2 3 4 5 6 7 8 9 10 11 12 13 14
661
FTUS45 KABQ 312342
TAFABQ
TAF
KABQ 312342Z 0100/0124 10016KT P6SM VCSH SCT080 BKN120
      TEMPO 0100/0104 10016G26KT
     FM011000 09013G23KT P6SM FEW040 BKN100
     FM011600 13010KT P6SM FEW035 SCT060 BKN100
     FM011900 16015G25KT P6SM VCTS BKN060CB
     FM012200 15011KT P6SM VCSH BKN090=

USA.gov is the U.S. government's official web portal to all federal, state and local government web resources and services.